Time;durP1;ratioP1;P1;durP2;ratioP2;P2;SDS_P1;SDS_P2;PMS_P1;PMS_P2;Temp;Humidity;BMP_temperature;BMP_pressure;BME280_temperature;BME280_humidity;BME280_pressure;Samples;Min_cycle;Max_cycle;Signal;HPM_P1;HPM_P2
2022/01/02 00:00:04;;;;;;;9.80;6.20;;;;;;;15.33;54.83;97927.28;5092887;28;20085;-29
2022/01/02 00:02:33;;;;;;;8.73;5.93;;;;;;;15.27;55.03;97922.75;5093003;28;20032;-29
2022/01/02 00:05:06;;;;;;;8.95;6.10;;;;;;;15.21;55.38;97927.16;5092820;28;20024;-29
2022/01/02 00:07:40;;;;;;;8.95;5.97;;;;;;;15.33;54.89;97927.28;5092852;28;20032;-29
2022/01/02 00:10:07;;;;;;;6.90;5.22;;;;;;;15.26;55.16;97921.22;5093024;28;20114;-29
2022/01/02 00:12:34;;;;;;;8.52;5.32;;;;;;;15.22;55.36;97918.53;5092700;28;20035;-29
2022/01/02 00:15:03;;;;;;;6.18;4.63;;;;;;;15.22;55.17;97924.00;5092859;28;20054;-29
2022/01/02 00:17:30;;;;;;;7.68;5.35;;;;;;;15.25;55.08;97916.94;5092370;28;20081;-28
2022/01/02 00:19:57;;;;;;;6.45;5.18;;;;;;;15.24;55.26;97923.59;5092758;28;20432;-30
2022/01/02 00:22:34;;;;;;;6.90;5.53;;;;;;;15.28;55.27;97922.34;5092661;28;20213;-29
2022/01/02 00:25:00;;;;;;;7.15;4.88;;;;;;;15.27;55.21;97926.25;5092473;28;20024;-29
2022/01/02 00:27:27;;;;;;;6.65;5.47;;;;;;;15.31;54.90;97918.00;5092487;28;20026;-29
2022/01/02 00:29:53;;;;;;;6.68;4.78;;;;;;;15.24;55.19;97916.16;5092675;28;20028;-30
2022/01/02 00:32:21;;;;;;;7.03;5.13;;;;;;;15.28;55.02;97914.13;5092623;28;20039;-28
2022/01/02 00:34:51;;;;;;;6.60;5.28;;;;;;;15.29;55.03;97920.38;5092559;28;20105;-28
2022/01/02 00:37:16;;;;;;;6.03;4.60;;;;;;;15.27;55.17;97911.81;5092693;28;20022;-29
2022/01/02 00:39:43;;;;;;;5.93;4.53;;;;;;;15.28;55.10;97913.38;5092358;28;20032;-29
2022/01/02 00:42:24;;;;;;;6.93;5.20;;;;;;;15.27;54.91;97912.59;5090965;28;20386;-29
2022/01/02 00:45:06;;;;;;;6.82;4.80;;;;;;;15.24;55.17;97907.19;5092504;28;20063;-29
2022/01/02 00:47:44;;;;;;;5.85;4.65;;;;;;;15.29;55.01;97903.97;5092785;28;20165;-29
2022/01/02 00:50:22;;;;;;;5.43;4.25;;;;;;;15.31;54.98;97905.09;5094611;28;20469;-29
2022/01/02 00:52:49;;;;;;;6.20;4.55;;;;;;;15.23;55.13;97911.88;5096845;28;20048;-28
2022/01/02 00:55:20;;;;;;;6.53;4.68;;;;;;;15.28;55.10;97913.38;5096935;28;20020;-28
2022/01/02 00:57:56;;;;;;;4.78;4.05;;;;;;;15.26;54.98;97908.31;5096788;28;20035;-29
2022/01/02 01:00:22;;;;;;;5.35;4.70;;;;;;;15.28;54.94;97925.06;5096914;28;20024;-29
2022/01/02 01:02:54;;;;;;;5.80;4.53;;;;;;;15.30;55.06;97917.22;5096772;28;20024;-28
2022/01/02 01:05:31;;;;;;;6.00;4.70;;;;;;;15.27;54.98;97917.28;5096824;28;20093;-29
2022/01/02 01:07:59;;;;;;;5.55;4.60;;;;;;;15.32;55.00;97925.00;5096544;28;20024;-29
2022/01/02 01:10:28;;;;;;;7.18;4.78;;;;;;;15.30;54.85;97928.16;5097102;28;20359;-29
2022/01/02 01:12:56;;;;;;;6.03;4.40;;;;;;;15.37;54.60;97927.22;5096339;28;20049;-28
2022/01/02 01:15:24;;;;;;;6.40;4.95;;;;;;;15.32;54.74;97928.50;5096626;28;20024;-28
2022/01/02 01:17:55;;;;;;;5.95;4.50;;;;;;;15.33;54.86;97943.69;5096705;28;20095;-29
2022/01/02 01:20:22;;;;;;;6.07;4.72;;;;;;;15.34;54.80;97922.59;5096372;28;20024;-28
2022/01/02 01:22:48;;;;;;;6.43;4.85;;;;;;;15.37;54.62;97932.69;5096410;28;20028;-28
2022/01/02 01:25:17;;;;;;;7.10;4.93;;;;;;;15.27;55.07;97929.00;5096311;28;20023;-28
2022/01/02 01:27:49;;;;;;;7.18;5.20;;;;;;;15.31;54.89;97918.75;5096409;28;20024;-29
2022/01/02 01:30:16;;;;;;;6.78;5.13;;;;;;;15.29;54.87;97926.59;5096351;28;20063;-29
2022/01/02 01:32:42;;;;;;;6.60;4.88;;;;;;;15.35;54.96;97908.50;5096137;28;20031;-29
2022/01/02 01:35:09;;;;;;;5.57;4.43;;;;;;;15.34;54.87;97923.38;5096200;28;20065;-28
2022/01/02 01:37:34;;;;;;;6.28;4.60;;;;;;;15.30;55.00;97927.38;5096356;28;20107;-29
2022/01/02 01:40:00;;;;;;;6.03;4.03;;;;;;;15.27;54.80;97923.53;5096062;28;20066;-30
2022/01/02 01:42:57;;;;;;;5.90;4.38;;;;;;;15.23;55.23;97928.28;5096140;28;20028;-28
2022/01/02 01:47:47;;;;;;;5.93;4.32;;;;;;;15.29;54.73;97918.41;5095654;28;20024;-29
2022/01/02 01:50:13;;;;;;;4.47;3.42;;;;;;;15.28;55.01;97914.13;5096041;28;20024;-29
2022/01/02 01:52:39;;;;;;;5.13;3.75;;;;;;;15.30;55.08;97911.75;5095813;28;20040;-29
2022/01/02 01:55:05;;;;;;;5.18;3.63;;;;;;;15.33;54.86;97907.41;5095960;28;20115;-29
2022/01/02 01:57:32;;;;;;;4.80;3.38;;;;;;;15.32;54.83;97909.38;5095960;28;20063;-28
2022/01/02 01:59:58;;;;;;;4.88;3.28;;;;;;;15.33;54.86;97901.94;5095977;28;20051;-28
2022/01/02 02:02:24;;;;;;;5.07;3.30;;;;;;;15.28;54.73;97897.75;5095497;28;20059;-29
2022/01/02 02:04:49;;;;;;;4.45;3.33;;;;;;;15.32;54.75;97892.22;5095603;28;20023;-29
2022/01/02 02:07:17;;;;;;;3.65;3.00;;;;;;;15.29;54.90;97887.56;5095588;28;20028;-28
2022/01/02 02:10:18;;;;;;;4.05;3.00;;;;;;;15.33;54.88;97886.28;5095463;28;20068;-29
2022/01/02 02:12:35;;;;;;;3.60;2.83;;;;;;;15.32;54.71;97886.75;5093241;28;20093;-29
2022/01/02 02:15:00;;;;;;;3.95;2.80;;;;;;;15.29;54.84;97882.88;5095321;28;20031;-28
2022/01/02 02:17:26;;;;;;;3.70;2.63;;;;;;;15.31;54.84;97885.19;5095274;28;20335;-29
2022/01/02 02:19:59;;;;;;;4.18;2.70;;;;;;;15.24;54.77;97891.56;5095309;28;20024;-29
2022/01/02 02:22:25;;;;;;;4.13;2.80;;;;;;;15.25;54.82;97882.16;5095368;28;20031;-29
2022/01/02 02:24:51;;;;;;;4.20;2.47;;;;;;;15.27;54.80;97885.25;5095102;28;20023;-28
2022/01/02 02:27:22;;;;;;;3.83;2.40;;;;;;;15.24;54.73;97877.91;5095685;28;20050;-29
2022/01/02 02:29:47;;;;;;;3.13;2.28;;;;;;;15.26;54.75;97880.97;5095251;28;20024;-28
2022/01/02 02:32:13;;;;;;;3.22;2.10;;;;;;;15.25;54.87;97887.63;5095348;28;20051;-29
2022/01/02 02:34:38;;;;;;;3.08;2.20;;;;;;;15.25;54.85;97879.44;5095108;28;20024;-29
2022/01/02 02:37:04;;;;;;;2.78;2.10;;;;;;;15.27;54.92;97885.25;5095048;28;20030;-29
2022/01/02 02:39:32;;;;;;;3.42;2.20;;;;;;;15.25;54.79;97881.41;5094870;28;20045;-28
2022/01/02 02:41:58;;;;;;;3.85;2.40;;;;;;;15.25;54.67;97882.16;5094879;28;20103;-29
2022/01/02 02:44:37;;;;;;;3.45;2.30;;;;;;;15.27;54.66;97889.97;5092149;28;20118;-29
2022/01/02 02:49:46;;;;;;;2.95;2.15;;;;;;;15.19;54.88;97883.88;5094799;28;20035;-29
2022/01/02 02:52:30;;;;;;;2.35;1.80;;;;;;;15.20;54.75;97882.69;5094577;28;20052;-29
2022/01/02 02:54:55;;;;;;;2.50;1.60;;;;;;;15.21;54.73;97873.25;5094569;28;20108;-28
2022/01/02 02:57:21;;;;;;;2.85;2.13;;;;;;;15.25;54.66;97871.25;5094525;28;20111;-29
2022/01/02 02:59:46;;;;;;;2.95;2.10;;;;;;;15.27;54.57;97868.84;5094622;28;20020;-29
2022/01/02 03:02:12;;;;;;;3.20;2.00;;;;;;;15.19;54.62;97866.72;5094536;28;20024;-29
2022/01/02 03:04:37;;;;;;;2.78;2.05;;;;;;;15.18;54.63;97867.91;5094235;28;20537;-29
2022/01/02 03:07:03;;;;;;;2.95;1.98;;;;;;;15.22;54.56;97868.56;5094364;28;20126;-29
2022/01/02 03:09:39;;;;;;;2.25;1.73;;;;;;;15.21;54.67;97861.56;5094408;28;20082;-28
2022/01/02 03:12:06;;;;;;;2.85;2.13;;;;;;;15.24;54.44;97869.69;5093872;28;20027;-29
2022/01/02 03:14:32;;;;;;;2.33;1.90;;;;;;;15.20;54.54;97862.78;5094272;28;20462;-29
2022/01/02 03:16:58;;;;;;;2.58;2.13;;;;;;;15.22;54.51;97874.81;5094474;28;20032;-28
2022/01/02 03:19:23;;;;;;;2.42;1.80;;;;;;;15.24;54.58;97869.69;5094104;28;20016;-28
2022/01/02 03:21:48;;;;;;;4.30;2.25;;;;;;;15.23;54.41;97868.16;5094365;28;20020;-30
2022/01/02 03:24:14;;;;;;;3.15;2.30;;;;;;;15.13;54.75;97869.16;5094209;28;20085;-28
2022/01/02 03:26:39;;;;;;;3.13;2.20;;;;;;;15.13;54.60;97866.41;5093970;28;20050;-28
2022/01/02 03:29:05;;;;;;;3.28;2.38;;;;;;;15.18;54.65;97859.69;5094076;28;20036;-28
2022/01/02 03:31:30;;;;;;;3.05;2.22;;;;;;;15.18;54.44;97860.47;5093915;28;20358;-28
2022/01/02 03:33:56;;;;;;;3.03;2.40;;;;;;;15.20;54.38;97860.81;5093857;28;20024;-28
2022/01/02 03:36:22;;;;;;;2.63;2.15;;;;;;;15.27;54.20;97857.94;5093830;28;20031;-29
2022/01/02 03:38:48;;;;;;;3.08;2.10;;;;;;;15.23;54.25;97857.22;5093840;28;20129;-29
2022/01/02 03:41:13;;;;;;;3.00;2.33;;;;;;;15.24;54.21;97853.31;5094096;28;20028;-28
2022/01/02 03:43:39;;;;;;;3.97;2.50;;;;;;;15.20;54.26;97858.09;5093809;28;20102;-29
2022/01/02 03:46:04;;;;;;;3.90;2.72;;;;;;;15.16;54.40;97862.84;5093748;28;20028;-29
2022/01/02 03:48:34;;;;;;;4.28;2.60;;;;;;;15.18;54.34;97859.69;5093901;28;20031;-29
2022/01/02 03:50:59;;;;;;;4.15;2.85;;;;;;;15.16;54.29;97860.13;5093487;28;20051;-29
2022/01/02 03:53:25;;;;;;;3.40;2.67;;;;;;;15.16;54.31;97857.38;5093475;28;20020;-30
2022/01/02 03:55:51;;;;;;;4.38;2.90;;;;;;;15.21;54.27;97847.91;5093533;28;20386;-29
2022/01/02 03:58:17;;;;;;;4.20;2.70;;;;;;;15.14;54.01;97848.81;5093888;28;20028;-28
2022/01/02 04:00:43;;;;;;;4.03;2.90;;;;;;;15.19;54.14;97847.56;5092324;28;20053;-30
2022/01/02 04:03:08;;;;;;;3.60;2.72;;;;;;;15.18;53.94;97846.81;5092020;28;20050;-28
2022/01/02 04:05:34;;;;;;;3.67;2.90;;;;;;;15.18;54.09;97843.31;5093336;28;20459;-29
2022/01/02 04:07:59;;;;;;;4.57;3.05;;;;;;;15.21;53.97;97843.19;5093107;28;20028;-28
2022/01/02 04:10:25;;;;;;;4.25;2.90;;;;;;;15.15;54.31;97844.13;5093395;28;20023;-29
2022/01/02 04:12:50;;;;;;;4.07;3.25;;;;;;;15.15;53.88;97838.66;5093172;28;20484;-30
2022/01/02 04:15:16;;;;;;;4.85;3.60;;;;;;;15.18;54.00;97844.06;5093261;28;20024;-29
2022/01/02 04:17:42;;;;;;;4.90;3.28;;;;;;;15.21;53.78;97845.16;5093268;28;20020;-28
2022/01/02 04:20:10;;;;;;;5.47;3.70;;;;;;;15.22;53.85;97850.22;5093347;28;20036;-29
2022/01/02 04:22:36;;;;;;;5.45;3.83;;;;;;;15.19;53.96;97851.06;5093358;28;20027;-29
2022/01/02 04:25:04;;;;;;;3.85;3.13;;;;;;;15.21;53.94;97847.91;5092079;28;20045;-29
2022/01/02 04:27:29;;;;;;;5.07;3.67;;;;;;;15.18;53.85;97846.03;5093092;28;20478;-29
2022/01/02 04:29:55;;;;;;;5.10;3.83;;;;;;;15.12;54.07;97839.50;5093288;28;20028;-29
2022/01/02 04:32:21;;;;;;;4.18;3.35;;;;;;;15.12;54.01;97845.75;5093178;28;20031;-29
2022/01/02 04:34:46;;;;;;;7.20;4.10;;;;;;;15.12;54.20;97840.28;5092909;28;20459;-29
2022/01/02 04:37:12;;;;;;;5.60;3.95;;;;;;;15.10;53.82;97842.66;5093123;28;20024;-28
2022/01/02 04:39:39;;;;;;;6.20;3.95;;;;;;;15.13;53.80;97841.06;5092983;28;20024;-29
2022/01/02 04:42:05;;;;;;;5.30;3.85;;;;;;;15.20;53.62;97840.91;5091824;28;20030;-29
2022/01/02 04:44:31;;;;;;;5.70;4.28;;;;;;;15.19;53.66;97837.41;5093093;28;20024;-29
2022/01/02 04:46:56;;;;;;;4.97;3.80;;;;;;;15.15;53.65;97830.47;5093007;28;20526;-28
2022/01/02 04:49:22;;;;;;;5.55;4.38;;;;;;;15.08;53.81;97834.13;5092790;28;20020;-28
2022/01/02 04:51:47;;;;;;;5.90;4.22;;;;;;;15.15;53.81;97833.97;5092767;28;20409;-29
2022/01/02 04:54:14;;;;;;;5.72;4.32;;;;;;;15.16;53.65;97832.78;5092941;28;20020;-28
2022/01/02 04:56:39;;;;;;;4.97;3.80;;;;;;;15.16;53.61;97832.78;5092970;28;20024;-29
2022/01/02 04:59:05;;;;;;;6.68;4.38;;;;;;;15.10;53.85;97826.25;5092847;28;20043;-29
2022/01/02 05:01:31;;;;;;;4.93;3.72;;;;;;;15.12;53.77;97832.09;5092989;28;20027;-28
2022/01/02 05:03:56;;;;;;;5.50;4.00;;;;;;;15.16;53.50;97832.78;5092732;28;20067;-29
2022/01/02 05:06:22;;;;;;;6.68;3.97;;;;;;;15.14;53.47;97837.13;5092863;28;20027;-29
2022/01/02 05:08:47;;;;;;;6.47;3.78;;;;;;;15.15;53.60;97833.22;5092924;28;20032;-29
2022/01/02 05:11:13;;;;;;;4.35;3.50;;;;;;;15.15;53.43;97844.13;5092585;28;20020;-29
2022/01/02 05:13:39;;;;;;;5.25;4.03;;;;;;;15.07;53.74;97836.09;5092942;28;20016;-28
2022/01/02 05:16:05;;;;;;;4.47;3.50;;;;;;;15.15;53.63;97838.66;5092613;28;20107;-28
2022/01/02 05:18:31;;;;;;;5.25;3.70;;;;;;;15.19;53.47;97829.22;5092831;28;20023;-28
2022/01/02 05:20:57;;;;;;;5.13;3.72;;;;;;;15.15;53.47;97827.75;5092804;28;20084;-29
2022/01/02 05:23:22;;;;;;;4.95;3.58;;;;;;;15.12;53.61;97823.13;5092531;28;20019;-29
2022/01/02 05:25:48;;;;;;;4.47;3.33;;;;;;;15.19;53.55;97829.22;5092659;28;20028;-28
2022/01/02 05:28:14;;;;;;;5.68;3.47;;;;;;;15.18;53.38;97824.94;5092713;28;20049;-28
2022/01/02 05:30:40;;;;;;;4.35;3.30;;;;;;;15.10;53.77;97820.81;5092613;28;20391;-29
2022/01/02 05:33:06;;;;;;;4.30;3.50;;;;;;;15.10;53.55;97829.00;5092447;28;20024;-29
2022/01/02 05:35:32;;;;;;;4.00;3.20;;;;;;;15.14;53.45;97828.94;5093143;28;20028;-29
2022/01/02 05:37:59;;;;;;;4.47;3.28;;;;;;;15.19;53.24;97825.72;5096181;28;20076;-28
2022/01/02 05:40:30;;;;;;;4.68;3.13;;;;;;;15.12;53.63;97836.78;5096154;28;20038;-29
2022/01/02 05:42:59;;;;;;;4.05;3.03;;;;;;;15.16;53.40;97842.94;5095936;28;20031;-29
2022/01/02 05:45:25;;;;;;;3.45;2.85;;;;;;;15.16;53.36;97835.53;5096053;28;20056;-29
2022/01/02 05:47:50;;;;;;;5.35;3.00;;;;;;;15.10;53.75;97837.19;5094759;28;20035;-29
2022/01/02 05:50:16;;;;;;;5.53;3.17;;;;;;;15.09;53.57;97825.50;5096173;28;20039;-29
2022/01/02 05:52:41;;;;;;;4.28;3.08;;;;;;;15.12;53.54;97826.63;5095957;28;20102;-28
2022/01/02 05:55:07;;;;;;;4.20;3.00;;;;;;;15.10;53.51;97837.97;5095664;28;20024;-29
2022/01/02 05:57:32;;;;;;;3.78;3.05;;;;;;;15.16;53.56;97837.47;5095787;28;20375;-30
2022/01/02 05:59:58;;;;;;;4.28;3.10;;;;;;;15.14;53.57;97834.41;5095828;28;20430;-29
2022/01/02 06:02:23;;;;;;;3.97;3.22;;;;;;;15.11;53.57;97827.81;5095747;28;20433;-29
2022/01/02 06:04:49;;;;;;;5.32;3.30;;;;;;;15.16;53.56;97835.53;5092685;28;20028;-29
2022/01/02 06:07:15;;;;;;;4.20;2.95;;;;;;;15.13;53.58;97833.63;5095521;28;20031;-28
2022/01/02 06:09:41;;;;;;;4.05;2.78;;;;;;;15.11;53.45;97838.75;5095783;28;20024;-28
2022/01/02 06:12:06;;;;;;;4.45;2.70;;;;;;;15.10;53.68;97834.47;5095516;28;20073;-28
2022/01/02 06:14:32;;;;;;;3.90;3.00;;;;;;;15.16;53.43;97843.72;5095286;28;20020;-29
2022/01/02 06:16:57;;;;;;;4.05;2.90;;;;;;;15.08;53.58;97839.59;5094711;28;20043;-29
2022/01/02 06:19:22;;;;;;;3.70;2.35;;;;;;;15.11;53.46;97836.00;5095503;28;20031;-30
2022/01/02 06:21:48;;;;;;;4.00;3.00;;;;;;;15.05;53.58;97832.25;5095339;28;20420;-29
2022/01/02 06:24:13;;;;;;;4.03;2.47;;;;;;;15.09;53.63;97841.13;5094115;28;20417;-29
2022/01/02 06:26:39;;;;;;;4.18;2.53;;;;;;;15.08;53.51;97834.13;5095222;28;20069;-28
2022/01/02 06:29:04;;;;;;;3.67;2.70;;;;;;;15.06;53.79;97836.50;5095063;28;20024;-28
2022/01/02 06:31:30;;;;;;;3.75;2.80;;;;;;;15.10;53.52;97831.72;5095289;28;20058;-29
2022/01/02 06:33:56;;;;;;;4.03;2.70;;;;;;;15.05;53.81;97832.25;5094983;28;20041;-30
2022/01/02 06:36:21;;;;;;;3.42;2.40;;;;;;;15.02;53.71;97833.06;5094931;28;20039;-29
2022/01/02 06:38:47;;;;;;;5.35;3.13;;;;;;;15.02;53.68;97836.59;5095303;28;20119;-29
2022/01/02 06:41:12;;;;;;;3.85;2.75;;;;;;;15.03;53.61;97840.09;5094836;28;20119;-29
2022/01/02 06:43:39;;;;;;;3.47;2.85;;;;;;;15.14;53.56;97837.13;5094978;28;20081;-28
2022/01/02 06:46:05;;;;;;;4.20;2.95;;;;;;;15.08;53.60;97836.88;5094919;28;20081;-29
2022/01/02 06:48:30;;;;;;;4.75;3.10;;;;;;;15.12;53.54;97842.25;5093864;28;20028;-29
2022/01/02 06:50:56;;;;;;;4.95;3.30;;;;;;;15.10;53.51;97846.16;5094634;28;20067;-29
2022/01/02 06:53:21;;;;;;;3.92;3.05;;;;;;;15.09;53.63;97835.66;5094630;28;20020;-29
2022/01/02 06:55:47;;;;;;;6.70;3.80;;;;;;;15.13;53.38;97838.31;5094582;28;20031;-29
2022/01/02 06:58:14;;;;;;;5.35;3.33;;;;;;;15.12;53.30;97848.47;5094634;28;20020;-29
2022/01/02 07:00:40;;;;;;;4.63;3.05;;;;;;;15.08;53.74;97839.59;5094884;28;20047;-29
2022/01/02 07:03:05;;;;;;;4.15;3.10;;;;;;;15.03;53.75;97838.13;5093179;28;20111;-29
2022/01/02 07:05:31;;;;;;;5.70;3.53;;;;;;;15.08;53.60;97847.81;5094455;28;20020;-29
2022/01/02 07:07:56;;;;;;;4.20;3.35;;;;;;;15.12;53.52;97844.97;5094641;28;20039;-30
2022/01/02 07:10:22;;;;;;;4.03;3.25;;;;;;;15.12;53.54;97840.28;5093007;28;20385;-29
2022/01/02 07:12:47;;;;;;;5.78;3.50;;;;;;;15.08;53.63;97840.34;5093139;28;20032;-29
2022/01/02 07:15:13;;;;;;;4.72;3.17;;;;;;;15.09;53.53;97846.56;5094434;28;20069;-28
2022/01/02 07:17:39;;;;;;;4.57;3.30;;;;;;;15.07;53.57;97843.53;5094170;28;20173;-29
2022/01/02 07:20:05;;;;;;;4.50;3.00;;;;;;;15.09;53.55;97844.63;5092891;28;20034;-29
2022/01/02 07:22:31;;;;;;;4.90;3.25;;;;;;;15.07;53.64;97854.44;5094068;28;20027;-29
2022/01/02 07:24:56;;;;;;;3.70;2.80;;;;;;;15.13;53.38;97844.56;5094067;28;20481;-29
2022/01/02 07:27:22;;;;;;;3.17;2.60;;;;;;;15.12;53.49;97843.00;5094460;28;20020;-29
2022/01/02 07:29:48;;;;;;;3.35;2.70;;;;;;;15.05;53.61;97852.13;5094093;28;20077;-29
2022/01/02 07:32:15;;;;;;;3.83;2.75;;;;;;;15.05;53.62;97856.84;5094084;28;20023;-29
2022/01/02 07:34:41;;;;;;;3.40;2.50;;;;;;;15.09;53.53;97843.84;5094115;28;20024;-29
2022/01/02 07:37:07;;;;;;;3.45;2.55;;;;;;;15.08;53.64;97845.06;5093892;28;20027;-30
2022/01/02 07:39:33;;;;;;;3.33;2.70;;;;;;;15.10;53.58;97839.94;5092497;28;20124;-29
2022/01/02 07:41:58;;;;;;;4.00;2.50;;;;;;;15.08;53.63;97856.00;5093887;28;20017;-28
2022/01/02 07:44:24;;;;;;;3.05;2.38;;;;;;;15.11;53.47;97855.13;5092604;28;20138;-29
2022/01/02 07:46:49;;;;;;;2.78;2.17;;;;;;;15.06;53.68;97859.16;5093745;28;20024;-30
2022/01/02 07:49:14;;;;;;;3.30;2.47;;;;;;;15.09;53.49;97858.28;5093674;28;20023;-29
2022/01/02 07:51:40;;;;;;;3.13;2.40;;;;;;;15.06;53.75;97852.91;5093208;28;20048;-29
2022/01/02 07:54:05;;;;;;;3.45;2.40;;;;;;;14.98;53.95;97848.75;5094244;28;20028;-29
2022/01/02 07:56:31;;;;;;;4.13;2.50;;;;;;;14.96;53.88;97853.91;5081073;28;20475;-29
2022/01/02 07:58:58;;;;;;;4.43;2.70;;;;;;;15.10;53.37;97865.28;5071292;28;20036;-28
2022/01/02 08:01:24;;;;;;;4.25;3.03;;;;;;;15.11;53.57;97852.41;5071309;28;20664;-29
2022/01/02 08:03:51;;;;;;;4.82;2.88;;;;;;;15.08;53.62;97856.00;5071131;28;20029;-29
2022/01/02 08:06:16;;;;;;;5.55;3.20;;;;;;;15.07;53.66;97857.19;5070797;28;20024;-29
2022/01/02 08:08:42;;;;;;;6.38;3.70;;;;;;;15.05;53.48;97860.34;5070784;28;20024;-29
2022/01/02 08:11:08;;;;;;;5.22;3.40;;;;;;;15.04;53.63;97866.22;5071036;28;20055;-29
2022/01/02 08:13:33;;;;;;;6.10;3.50;;;;;;;15.00;53.77;97869.00;5071227;28;20417;-29
2022/01/02 08:15:58;;;;;;;5.68;3.58;;;;;;;15.06;53.70;97869.31;5071150;28;20404;-28
2022/01/02 08:18:24;;;;;;;6.38;3.95;;;;;;;15.03;53.73;97870.13;5070965;28;20020;-29
2022/01/02 08:20:49;;;;;;;4.63;3.50;;;;;;;15.10;53.47;97873.50;5070731;28;20040;-28
2022/01/02 08:23:16;;;;;;;7.15;4.68;;;;;;;15.10;53.18;97872.72;5071120;28;20033;-29
2022/01/02 08:25:41;;;;;;;7.07;4.55;;;;;;;15.03;53.51;97870.91;5070795;28;20039;-29
2022/01/02 08:28:07;;;;;;;10.70;7.10;;;;;;;15.05;53.75;97868.53;5068832;28;20029;-29
2022/01/02 08:30:32;;;;;;;9.85;6.50;;;;;;;15.05;53.68;97875.97;5085310;28;20058;-29
2022/01/02 08:32:58;;;;;;;9.65;5.75;;;;;;;15.00;53.61;97863.53;5090762;28;20036;-29
2022/01/02 08:35:24;;;;;;;10.30;6.03;;;;;;;15.03;53.61;97872.88;5091230;28;20035;-29
2022/01/02 08:37:49;;;;;;;9.20;5.50;;;;;;;15.04;53.71;97867.00;5091039;28;20016;-29
2022/01/02 08:40:15;;;;;;;11.00;6.30;;;;;;;15.04;53.61;97875.19;5090807;28;20435;-28
2022/01/02 08:42:40;;;;;;;8.70;5.82;;;;;;;15.06;53.68;97866.56;5090571;28;20024;-29
2022/01/02 08:45:06;;;;;;;7.85;5.07;;;;;;;15.08;53.57;97873.13;5090839;28;20058;-28
2022/01/02 08:47:32;;;;;;;8.32;5.55;;;;;;;14.98;53.94;97865.91;5090909;28;20039;-28
2022/01/02 08:49:57;;;;;;;9.57;5.60;;;;;;;14.95;53.86;97868.75;5091138;28;20050;-28
2022/01/02 08:52:24;;;;;;;7.70;5.35;;;;;;;14.99;53.92;97870.19;5090903;28;20048;-29
2022/01/02 08:54:50;;;;;;;9.80;6.25;;;;;;;15.06;53.83;97864.59;5090873;28;20119;-29
2022/01/02 08:57:16;;;;;;;9.15;6.35;;;;;;;15.11;53.57;97866.06;5090426;28;20103;-28
2022/01/02 08:59:41;;;;;;;9.82;6.20;;;;;;;15.14;53.54;97876.16;5090845;28;20047;-29
2022/01/02 09:02:07;;;;;;;10.63;6.63;;;;;;;15.07;53.57;97877.09;5090837;28;20529;-30
2022/01/02 09:04:32;;;;;;;9.73;6.53;;;;;;;15.01;53.67;97875.25;5090973;28;20152;-29
2022/01/02 09:06:58;;;;;;;9.52;6.38;;;;;;;15.03;53.87;97879.09;5090766;28;20024;-28
2022/01/02 09:09:24;;;;;;;10.15;6.80;;;;;;;14.97;54.02;97886.22;5090310;28;20038;-28
2022/01/02 09:11:51;;;;;;;10.60;6.53;;;;;;;15.05;53.97;97878.69;5093386;28;20032;-29
2022/01/02 09:14:17;;;;;;;9.30;6.40;;;;;;;15.02;53.82;97885.75;5094834;28;20032;-29
2022/01/02 09:16:44;;;;;;;9.27;6.18;;;;;;;15.04;54.04;97893.53;5094497;28;20342;-29
2022/01/02 09:19:10;;;;;;;8.32;5.65;;;;;;;15.02;54.00;97896.69;5094386;28;20012;-29
2022/01/02 09:21:36;;;;;;;7.95;5.38;;;;;;;14.97;54.14;97888.19;5094583;28;20028;-28
2022/01/02 09:24:01;;;;;;;9.35;6.03;;;;;;;15.04;53.98;97890.81;5094469;28;20074;-29
2022/01/02 09:26:26;;;;;;;9.77;6.07;;;;;;;14.97;54.09;97893.66;5094365;28;20028;-29
2022/01/02 09:28:52;;;;;;;8.07;5.07;;;;;;;14.93;54.36;97901.16;5092386;28;20039;-29
2022/01/02 09:31:17;;;;;;;8.90;5.60;;;;;;;15.00;54.14;97887.38;5094091;28;20031;-29
2022/01/02 09:33:43;;;;;;;8.52;5.20;;;;;;;14.98;54.23;97889.75;5094175;28;20024;-28
2022/01/02 09:36:10;;;;;;;7.47;5.53;;;;;;;15.03;54.22;97895.50;5094147;28;20043;-29
2022/01/02 09:38:35;;;;;;;8.30;5.22;;;;;;;15.09;53.77;97884.84;5094310;28;20024;-30
2022/01/02 09:41:00;;;;;;;6.57;4.95;;;;;;;15.06;53.79;97891.94;5094254;28;20043;-29
2022/01/02 09:43:26;;;;;;;7.03;5.00;;;;;;;15.00;54.10;97892.81;5093831;28;20023;-29
2022/01/02 09:45:52;;;;;;;8.15;4.85;;;;;;;15.01;54.11;97899.84;5094226;28;20066;-29
2022/01/02 09:48:17;;;;;;;8.02;5.20;;;;;;;14.97;54.18;97894.44;5093875;28;20035;-28
2022/01/02 09:50:44;;;;;;;7.50;5.38;;;;;;;15.03;53.90;97900.19;5093831;28;20016;-29
2022/01/02 09:53:10;;;;;;;7.82;4.90;;;;;;;14.91;54.35;97901.59;5093911;28;20027;-29
2022/01/02 09:55:36;;;;;;;7.18;4.75;;;;;;;14.95;54.13;97894.09;5093761;28;20474;-29
2022/01/02 09:58:04;;;;;;;6.60;4.60;;;;;;;14.98;54.37;97895.97;5093823;28;20480;-29
2022/01/02 10:00:30;;;;;;;7.65;5.10;;;;;;;15.00;54.20;97904.53;5093644;28;20028;-29
2022/01/02 10:02:59;;;;;;;6.82;4.85;;;;;;;14.98;54.13;97890.50;5093712;28;20028;-28
2022/01/02 10:05:27;;;;;;;7.80;5.10;;;;;;;15.08;53.85;97899.72;5093641;28;20031;-29
2022/01/02 10:07:54;;;;;;;6.68;4.97;;;;;;;14.92;54.26;97897.66;5091568;28;20114;-29
2022/01/02 10:10:20;;;;;;;6.07;4.32;;;;;;;15.01;54.27;97899.84;5091999;28;20031;-28
2022/01/02 10:12:46;;;;;;;6.05;4.15;;;;;;;15.00;54.37;97895.56;5093487;28;20035;-28
2022/01/02 10:15:14;;;;;;;6.45;4.35;;;;;;;14.97;54.40;97894.44;5093603;28;20485;-28
2022/01/02 10:18:03;;;;;;;5.95;4.63;;;;;;;14.99;54.19;97886.59;5093193;28;20702;-30
2022/01/02 10:20:32;;;;;;;6.90;4.60;;;;;;;14.96;54.36;97887.41;5093249;28;20019;-28
2022/01/02 10:23:29;;;;;;;6.70;4.97;;;;;;;14.99;54.37;97897.53;5093028;28;20055;-29
2022/01/02 10:25:56;;;;;;;5.93;4.38;;;;;;;14.95;54.41;97890.59;5093258;28;20077;-29
2022/01/02 10:28:35;;;;;;;6.82;5.03;;;;;;;14.97;54.27;97888.19;5091364;28;20024;-29
2022/01/02 10:31:10;;;;;;;6.38;5.20;;;;;;;15.00;54.37;97890.09;5093283;28;20462;-27
2022/01/02 10:33:56;;;;;;;7.10;4.80;;;;;;;15.01;54.37;97895.13;5092888;28;20055;-28
2022/01/02 10:36:34;;;;;;;6.68;5.05;;;;;;;15.09;54.13;97895.75;5093075;28;20023;-29
2022/01/02 10:39:05;;;;;;;6.35;4.55;;;;;;;14.98;54.48;97889.75;5092850;28;20077;-28
2022/01/02 10:41:33;;;;;;;6.85;5.20;;;;;;;15.01;54.15;97888.91;5092871;28;20031;-28
2022/01/02 10:44:20;;;;;;;6.00;4.70;;;;;;;14.97;54.45;97883.50;5092717;28;20035;-28
2022/01/02 10:47:06;;;;;;;6.18;4.50;;;;;;;15.00;54.25;97890.09;5092188;28;20113;-29
2022/01/02 10:49:59;;;;;;;5.55;4.13;;;;;;;14.98;54.23;97884.28;5089217;28;20036;-28
2022/01/02 10:52:30;;;;;;;5.28;4.30;;;;;;;15.01;54.54;97880.72;5090940;28;20043;-29
2022/01/02 10:54:58;;;;;;;7.47;5.20;;;;;;;15.00;54.38;97884.63;5087104;28;20533;-28
2022/01/02 10:57:24;;;;;;;5.85;4.50;;;;;;;15.02;54.54;97876.78;5091764;28;20106;-30
2022/01/02 10:59:55;;;;;;;6.57;4.55;;;;;;;14.99;54.50;97880.34;5091826;28;20377;-29
2022/01/02 11:02:23;;;;;;;6.45;4.22;;;;;;;15.02;54.56;97879.53;5091932;28;20108;-28
2022/01/02 11:04:59;;;;;;;5.70;4.45;;;;;;;15.04;54.23;97879.88;5091798;28;20109;-28
2022/01/02 11:07:26;;;;;;;6.45;4.60;;;;;;;14.98;54.61;97879.59;5092198;28;20028;-28
2022/01/02 11:09:53;;;;;;;6.15;4.68;;;;;;;15.04;54.51;97879.88;5092445;28;20023;-28
2022/01/02 11:12:20;;;;;;;5.93;4.47;;;;;;;15.02;54.40;97871.31;5092297;28;20027;-29
2022/01/02 11:14:47;;;;;;;6.40;4.88;;;;;;;15.01;54.64;97872.50;5092180;28;20024;-28
2022/01/02 11:17:13;;;;;;;6.93;5.38;;;;;;;14.98;54.67;97862.41;5092255;28;20027;-28
2022/01/02 11:19:39;;;;;;;7.90;5.70;;;;;;;15.03;54.50;97861.94;5091719;28;20028;-29
2022/01/02 11:22:11;;;;;;;9.32;5.90;;;;;;;14.99;54.60;97856.53;5092086;28;20046;-29
2022/01/02 11:24:46;;;;;;;9.00;5.55;;;;;;;14.95;54.93;97847.66;5092272;28;20207;-30
2022/01/02 11:27:36;;;;;;;8.32;5.45;;;;;;;15.03;54.54;97846.31;5092222;28;20016;-29
2022/01/02 11:30:27;;;;;;;7.35;5.20;;;;;;;15.03;54.56;97837.34;5091929;28;20024;-28
2022/01/02 11:33:15;;;;;;;11.02;6.65;;;;;;;15.01;54.64;97828.81;5091516;28;20027;-27
2022/01/02 11:35:44;;;;;;;10.73;6.78;;;;;;;14.90;55.31;97825.53;5090649;28;20431;-29
2022/01/02 11:38:10;;;;;;;10.27;6.93;;;;;;;15.02;54.73;97830.34;5098934;28;20385;-28
2022/01/02 11:40:56;;;;;;;10.40;7.15;;;;;;;15.02;54.59;97828.38;5112261;28;20499;-29